createdAt,value
2024-05-09T00:03:24.749Z,6.49
2024-05-09T00:13:24.674Z,5.90
2024-05-09T00:23:23.736Z,7.74
2024-05-09T00:33:23.933Z,5.90
2024-05-09T00:43:23.702Z,4.83
2024-05-09T00:53:22.786Z,4.06
2024-05-09T01:03:23.131Z,7.33
2024-05-09T01:13:22.725Z,6.75
2024-05-09T01:23:21.790Z,6.27
2024-05-09T01:33:20.927Z,7.90
2024-05-09T01:43:20.821Z,5.97
2024-05-09T01:53:19.815Z,5.68
2024-05-09T02:03:19.020Z,7.03
2024-05-09T02:13:18.858Z,8.27
2024-05-09T02:23:18.978Z,8.07
2024-05-09T02:33:19.131Z,6.05
2024-05-09T02:43:18.870Z,8.07
2024-05-09T02:53:18.051Z,7.58
2024-05-09T03:03:18.114Z,6.62
2024-05-09T03:13:17.908Z,7.87
2024-05-09T03:23:16.964Z,9.10
2024-05-09T03:33:18.688Z,7.00
2024-05-09T03:43:17.974Z,5.75
2024-05-09T03:53:17.095Z,5.84
2024-05-09T04:03:17.235Z,10.91
2024-05-09T04:13:17.173Z,10.42
2024-05-09T04:23:17.044Z,6.59
2024-05-09T04:33:16.191Z,6.78
2024-05-09T04:43:16.827Z,8.01
2024-05-09T04:53:16.110Z,6.00
2024-05-09T05:03:16.901Z,8.19
2024-05-09T05:13:18.520Z,6.76
2024-05-09T05:23:18.124Z,6.84
2024-05-09T05:33:19.012Z,7.69
2024-05-09T05:43:19.097Z,9.77
2024-05-09T05:53:18.236Z,11.46
2024-05-09T06:03:18.153Z,9.82
2024-05-09T06:13:18.145Z,10.38
2024-05-09T06:23:17.209Z,9.79
2024-05-09T06:33:17.442Z,6.99
2024-05-09T06:43:19.107Z,12.35
2024-05-09T06:53:18.228Z,9.03
2024-05-09T07:03:18.793Z,9.77
2024-05-09T07:13:18.230Z,7.75
2024-05-09T07:23:17.317Z,11.22
2024-05-09T07:33:17.567Z,9.48
2024-05-09T07:43:17.312Z,7.19
2024-05-09T07:53:37.877Z,7.41
2024-05-09T08:03:17.437Z,9.12
2024-05-09T08:13:17.434Z,8.05
2024-05-09T08:23:17.362Z,6.57
2024-05-09T08:33:16.547Z,9.17
2024-05-09T08:43:16.564Z,6.38
2024-05-09T08:53:16.414Z,7.29
2024-05-09T09:03:15.584Z,8.19
2024-05-09T09:13:15.794Z,8.09
2024-05-09T09:23:15.568Z,7.29
2024-05-09T09:33:16.044Z,6.00
2024-05-09T09:43:15.840Z,3.90
2024-05-09T09:53:15.500Z,6.00
2024-05-09T10:03:14.603Z,4.30
2024-05-09T10:13:14.689Z,7.10
2024-05-09T10:23:14.566Z,3.20
2024-05-09T10:33:13.613Z,2.40
2024-05-09T10:43:13.599Z,4.50
2024-05-09T10:53:13.594Z,4.50
2024-05-09T11:03:12.679Z,3.40
2024-05-09T11:13:12.669Z,4.30
2024-05-09T11:23:12.631Z,4.30
2024-05-09T11:33:11.760Z,2.40
2024-05-09T11:43:11.711Z,4.50
2024-05-09T11:53:11.698Z,3.90
2024-05-09T12:03:10.711Z,2.40
2024-05-09T12:13:10.009Z,2.70
2024-05-09T12:23:10.630Z,3.50
2024-05-09T12:33:12.117Z,4.00
2024-05-09T12:43:12.221Z,1.40
2024-05-09T12:53:11.796Z,4.10
2024-05-09T13:03:10.932Z,2.30
2024-05-09T13:13:11.069Z,1.40
2024-05-09T13:23:10.853Z,2.50
2024-05-09T13:33:11.277Z,2.80
2024-05-09T13:43:10.886Z,3.20
2024-05-09T13:53:10.871Z,2.70
2024-05-09T14:03:10.275Z,2.60
2024-05-09T14:13:10.114Z,2.70
2024-05-09T14:23:09.991Z,3.20
2024-05-09T14:33:10.264Z,0.90
2024-05-09T14:43:10.260Z,2.80
2024-05-09T14:53:10.389Z,2.80
2024-05-09T15:03:10.026Z,3.00
2024-05-09T15:13:12.290Z,1.70
2024-05-09T15:23:11.009Z,3.20
2024-05-09T15:33:10.116Z,3.20
2024-05-09T15:43:11.375Z,3.00
2024-05-09T15:53:12.077Z,5.09
2024-05-09T16:03:13.448Z,3.40
2024-05-09T16:13:13.399Z,3.70
2024-05-09T16:23:13.104Z,4.29
2024-05-09T16:33:12.516Z,2.70
2024-05-09T16:43:12.867Z,4.19
2024-05-09T16:53:13.109Z,5.49
2024-05-09T17:03:13.194Z,4.49
2024-05-09T17:13:13.234Z,3.30
2024-05-09T17:23:14.214Z,6.39
2024-05-09T17:33:14.343Z,3.39
2024-05-09T17:43:14.326Z,4.09
2024-05-09T17:53:14.219Z,2.70
2024-05-09T18:03:14.165Z,2.69
2024-05-09T18:13:14.867Z,2.40
2024-05-09T18:23:14.878Z,3.09
2024-05-09T18:33:15.054Z,2.30
2024-05-09T18:43:14.952Z,1.40
2024-05-09T18:53:14.917Z,2.79
2024-05-09T19:03:14.872Z,2.69
2024-05-09T19:13:15.416Z,1.30
2024-05-09T19:23:14.943Z,1.90
2024-05-09T19:33:14.605Z,1.60
2024-05-09T19:43:15.078Z,1.99
2024-05-09T19:53:15.089Z,2.49
2024-05-09T20:03:16.004Z,3.99
2024-05-09T20:13:16.042Z,2.19
2024-05-09T20:23:16.011Z,2.79
2024-05-09T20:33:15.089Z,2.79
2024-05-09T20:43:39.808Z,4.47
2024-05-09T20:53:38.813Z,3.98
2024-05-09T21:03:38.028Z,2.58
2024-05-09T21:13:37.831Z,3.77
2024-05-09T21:23:36.875Z,2.98
2024-05-09T21:33:36.135Z,3.08
2024-05-09T21:43:35.936Z,2.78
2024-05-09T21:53:36.591Z,4.16
2024-05-09T22:03:36.142Z,4.26
2024-05-09T22:13:35.925Z,3.57
2024-05-09T22:23:34.934Z,3.17
2024-05-09T22:33:34.279Z,5.84
2024-05-09T22:43:33.972Z,4.95
2024-05-09T22:53:32.997Z,3.86
2024-05-09T23:03:32.253Z,4.84
2024-05-09T23:13:32.015Z,4.64
2024-05-09T23:23:31.027Z,4.84
2024-05-09T23:33:30.067Z,3.75
2024-05-09T23:43:30.095Z,4.13
2024-05-09T23:53:29.058Z,4.43
